sensor_id;sensor_type;location;lat;lon;timestamp;P1;durP1;ratioP1;P2;durP2;ratioP2
11791;SDS011;5953;52.372;9.918;2023-11-19T00:00:54;1.00;;;0.90;;
11791;SDS011;5953;52.372;9.918;2023-11-19T00:03:22;1.07;;;0.90;;
11791;SDS011;5953;52.372;9.918;2023-11-19T00:05:49;0.60;;;0.60;;
11791;SDS011;5953;52.372;9.918;2023-11-19T00:08:19;0.60;;;0.60;;
11791;SDS011;5953;52.372;9.918;2023-11-19T00:10:47;0.83;;;0.80;;
11791;SDS011;5953;52.372;9.918;2023-11-19T00:13:14;1.20;;;0.70;;
11791;SDS011;5953;52.372;9.918;2023-11-19T00:15:42;1.40;;;0.93;;
11791;SDS011;5953;52.372;9.918;2023-11-19T00:18:17;0.83;;;0.70;;
11791;SDS011;5953;52.372;9.918;2023-11-19T00:20:51;0.80;;;0.80;;
11791;SDS011;5953;52.372;9.918;2023-11-19T00:23:20;0.70;;;0.70;;
11791;SDS011;5953;52.372;9.918;2023-11-19T00:25:49;1.70;;;0.73;;
11791;SDS011;5953;52.372;9.918;2023-11-19T00:28:17;0.50;;;0.50;;
11791;SDS011;5953;52.372;9.918;2023-11-19T00:30:45;1.90;;;0.83;;
11791;SDS011;5953;52.372;9.918;2023-11-19T00:33:13;0.60;;;0.60;;
11791;SDS011;5953;52.372;9.918;2023-11-19T00:35:41;0.83;;;0.80;;
11791;SDS011;5953;52.372;9.918;2023-11-19T00:38:09;0.67;;;0.57;;
11791;SDS011;5953;52.372;9.918;2023-11-19T00:40:39;0.60;;;0.50;;
11791;SDS011;5953;52.372;9.918;2023-11-19T00:43:07;0.60;;;0.60;;
11791;SDS011;5953;52.372;9.918;2023-11-19T00:45:35;0.60;;;0.60;;
11791;SDS011;5953;52.372;9.918;2023-11-19T00:48:03;1.07;;;0.60;;
11791;SDS011;5953;52.372;9.918;2023-11-19T00:50:31;0.83;;;0.80;;
11791;SDS011;5953;52.372;9.918;2023-11-19T00:53:03;0.90;;;0.80;;
11791;SDS011;5953;52.372;9.918;2023-11-19T00:55:31;1.10;;;0.77;;
11791;SDS011;5953;52.372;9.918;2023-11-19T00:58:00;0.70;;;0.60;;
11791;SDS011;5953;52.372;9.918;2023-11-19T01:00:29;1.43;;;0.67;;
11791;SDS011;5953;52.372;9.918;2023-11-19T01:02:58;1.20;;;1.00;;
11791;SDS011;5953;52.372;9.918;2023-11-19T01:05:26;0.80;;;0.80;;
11791;SDS011;5953;52.372;9.918;2023-11-19T01:07:54;1.00;;;0.90;;
11791;SDS011;5953;52.372;9.918;2023-11-19T01:10:22;1.37;;;1.27;;
11791;SDS011;5953;52.372;9.918;2023-11-19T01:12:51;1.10;;;1.00;;
11791;SDS011;5953;52.372;9.918;2023-11-19T01:15:20;1.43;;;1.33;;
11791;SDS011;5953;52.372;9.918;2023-11-19T01:17:49;1.70;;;1.30;;
11791;SDS011;5953;52.372;9.918;2023-11-19T01:23:07;1.27;;;1.17;;
11791;SDS011;5953;52.372;9.918;2023-11-19T01:25:35;1.20;;;1.10;;
11791;SDS011;5953;52.372;9.918;2023-11-19T01:28:04;1.87;;;1.50;;
11791;SDS011;5953;52.372;9.918;2023-11-19T01:30:33;3.80;;;1.80;;
11791;SDS011;5953;52.372;9.918;2023-11-19T01:33:01;2.63;;;1.47;;
11791;SDS011;5953;52.372;9.918;2023-11-19T01:35:29;1.83;;;1.53;;
11791;SDS011;5953;52.372;9.918;2023-11-19T01:37:57;3.00;;;1.67;;
11791;SDS011;5953;52.372;9.918;2023-11-19T01:40:25;2.50;;;1.70;;
11791;SDS011;5953;52.372;9.918;2023-11-19T01:42:53;1.50;;;1.40;;
11791;SDS011;5953;52.372;9.918;2023-11-19T01:45:22;1.63;;;1.53;;
11791;SDS011;5953;52.372;9.918;2023-11-19T01:47:56;1.67;;;1.57;;
11791;SDS011;5953;52.372;9.918;2023-11-19T01:50:24;1.80;;;1.70;;
11791;SDS011;5953;52.372;9.918;2023-11-19T01:52:53;1.60;;;1.50;;
11791;SDS011;5953;52.372;9.918;2023-11-19T01:55:24;3.60;;;2.03;;
11791;SDS011;5953;52.372;9.918;2023-11-19T01:57:54;2.17;;;1.90;;
11791;SDS011;5953;52.372;9.918;2023-11-19T02:00:26;1.70;;;1.60;;
11791;SDS011;5953;52.372;9.918;2023-11-19T02:02:54;2.53;;;1.80;;
11791;SDS011;5953;52.372;9.918;2023-11-19T02:05:24;2.67;;;1.60;;
11791;SDS011;5953;52.372;9.918;2023-11-19T02:07:53;1.57;;;1.47;;
11791;SDS011;5953;52.372;9.918;2023-11-19T02:10:33;1.97;;;1.70;;
11791;SDS011;5953;52.372;9.918;2023-11-19T02:13:06;1.60;;;1.50;;
11791;SDS011;5953;52.372;9.918;2023-11-19T02:15:36;1.53;;;1.43;;
11791;SDS011;5953;52.372;9.918;2023-11-19T02:18:21;1.47;;;1.37;;
11791;SDS011;5953;52.372;9.918;2023-11-19T02:20:50;1.70;;;1.60;;
11791;SDS011;5953;52.372;9.918;2023-11-19T02:23:25;1.73;;;1.63;;
11791;SDS011;5953;52.372;9.918;2023-11-19T02:25:59;1.50;;;1.33;;
11791;SDS011;5953;52.372;9.918;2023-11-19T02:28:33;2.43;;;1.27;;
11791;SDS011;5953;52.372;9.918;2023-11-19T02:31:01;1.43;;;1.33;;
11791;SDS011;5953;52.372;9.918;2023-11-19T02:33:30;2.33;;;1.57;;
11791;SDS011;5953;52.372;9.918;2023-11-19T02:35:58;1.53;;;1.30;;
11791;SDS011;5953;52.372;9.918;2023-11-19T02:38:26;1.47;;;1.30;;
11791;SDS011;5953;52.372;9.918;2023-11-19T02:40:54;1.33;;;1.13;;
11791;SDS011;5953;52.372;9.918;2023-11-19T02:43:21;1.20;;;1.10;;
11791;SDS011;5953;52.372;9.918;2023-11-19T02:45:51;0.93;;;0.93;;
11791;SDS011;5953;52.372;9.918;2023-11-19T02:48:22;1.50;;;1.10;;
11791;SDS011;5953;52.372;9.918;2023-11-19T02:50:50;1.10;;;1.00;;
11791;SDS011;5953;52.372;9.918;2023-11-19T02:53:18;1.07;;;0.80;;
11791;SDS011;5953;52.372;9.918;2023-11-19T02:55:48;2.17;;;1.37;;
11791;SDS011;5953;52.372;9.918;2023-11-19T02:58:16;1.10;;;1.00;;
11791;SDS011;5953;52.372;9.918;2023-11-19T03:00:51;1.00;;;0.90;;
11791;SDS011;5953;52.372;9.918;2023-11-19T03:03:23;0.90;;;0.90;;
11791;SDS011;5953;52.372;9.918;2023-11-19T03:05:55;0.80;;;0.80;;
11791;SDS011;5953;52.372;9.918;2023-11-19T03:08:23;2.80;;;1.00;;
11791;SDS011;5953;52.372;9.918;2023-11-19T03:10:51;1.00;;;0.93;;
11791;SDS011;5953;52.372;9.918;2023-11-19T03:13:18;1.00;;;0.90;;
11791;SDS011;5953;52.372;9.918;2023-11-19T03:15:46;0.80;;;0.80;;
11791;SDS011;5953;52.372;9.918;2023-11-19T03:18:17;0.90;;;0.90;;
11791;SDS011;5953;52.372;9.918;2023-11-19T03:20:45;0.90;;;0.90;;
11791;SDS011;5953;52.372;9.918;2023-11-19T03:23:13;0.90;;;0.90;;
11791;SDS011;5953;52.372;9.918;2023-11-19T03:25:41;0.87;;;0.70;;
11791;SDS011;5953;52.372;9.918;2023-11-19T03:28:10;1.73;;;1.00;;
11791;SDS011;5953;52.372;9.918;2023-11-19T03:30:38;1.00;;;0.90;;
11791;SDS011;5953;52.372;9.918;2023-11-19T03:33:06;0.77;;;0.77;;
11791;SDS011;5953;52.372;9.918;2023-11-19T03:35:35;0.80;;;0.80;;
11791;SDS011;5953;52.372;9.918;2023-11-19T03:38:03;0.60;;;0.60;;
11791;SDS011;5953;52.372;9.918;2023-11-19T03:40:31;1.90;;;0.80;;
11791;SDS011;5953;52.372;9.918;2023-11-19T03:42:59;0.87;;;0.70;;
11791;SDS011;5953;52.372;9.918;2023-11-19T03:45:27;1.77;;;1.00;;
11791;SDS011;5953;52.372;9.918;2023-11-19T03:47:54;0.87;;;0.80;;
11791;SDS011;5953;52.372;9.918;2023-11-19T03:50:22;0.83;;;0.83;;
11791;SDS011;5953;52.372;9.918;2023-11-19T03:52:51;0.97;;;0.80;;
11791;SDS011;5953;52.372;9.918;2023-11-19T03:55:19;2.10;;;0.80;;
11791;SDS011;5953;52.372;9.918;2023-11-19T03:57:46;0.80;;;0.80;;
11791;SDS011;5953;52.372;9.918;2023-11-19T04:00:15;1.10;;;0.93;;
11791;SDS011;5953;52.372;9.918;2023-11-19T04:02:43;0.80;;;0.80;;
11791;SDS011;5953;52.372;9.918;2023-11-19T04:05:13;1.87;;;1.07;;
11791;SDS011;5953;52.372;9.918;2023-11-19T04:07:41;1.10;;;1.00;;
11791;SDS011;5953;52.372;9.918;2023-11-19T04:10:10;2.33;;;0.97;;
11791;SDS011;5953;52.372;9.918;2023-11-19T04:12:38;1.00;;;0.90;;
11791;SDS011;5953;52.372;9.918;2023-11-19T04:15:06;1.00;;;1.00;;
11791;SDS011;5953;52.372;9.918;2023-11-19T04:17:35;1.27;;;1.17;;
11791;SDS011;5953;52.372;9.918;2023-11-19T04:20:03;1.40;;;1.20;;
11791;SDS011;5953;52.372;9.918;2023-11-19T04:22:32;2.43;;;1.30;;
11791;SDS011;5953;52.372;9.918;2023-11-19T04:25:00;3.77;;;1.00;;
11791;SDS011;5953;52.372;9.918;2023-11-19T04:27:29;1.27;;;1.17;;
11791;SDS011;5953;52.372;9.918;2023-11-19T04:29:57;1.40;;;1.10;;
11791;SDS011;5953;52.372;9.918;2023-11-19T04:32:27;1.30;;;1.17;;
11791;SDS011;5953;52.372;9.918;2023-11-19T04:34:55;3.73;;;1.60;;
11791;SDS011;5953;52.372;9.918;2023-11-19T04:37:23;1.77;;;1.40;;
11791;SDS011;5953;52.372;9.918;2023-11-19T04:39:51;1.93;;;1.60;;
11791;SDS011;5953;52.372;9.918;2023-11-19T04:42:19;1.77;;;1.67;;
11791;SDS011;5953;52.372;9.918;2023-11-19T04:44:50;1.97;;;1.77;;
11791;SDS011;5953;52.372;9.918;2023-11-19T04:47:18;4.17;;;2.30;;
11791;SDS011;5953;52.372;9.918;2023-11-19T04:49:46;2.80;;;2.47;;
11791;SDS011;5953;52.372;9.918;2023-11-19T04:52:14;2.63;;;2.40;;
11791;SDS011;5953;52.372;9.918;2023-11-19T04:54:42;3.13;;;2.93;;
11791;SDS011;5953;52.372;9.918;2023-11-19T04:57:10;3.17;;;2.50;;
11791;SDS011;5953;52.372;9.918;2023-11-19T04:59:38;4.10;;;3.23;;
11791;SDS011;5953;52.372;9.918;2023-11-19T05:02:09;3.93;;;3.60;;
11791;SDS011;5953;52.372;9.918;2023-11-19T05:04:37;4.70;;;3.77;;
11791;SDS011;5953;52.372;9.918;2023-11-19T05:07:05;5.30;;;3.83;;
11791;SDS011;5953;52.372;9.918;2023-11-19T05:09:33;3.80;;;3.50;;
11791;SDS011;5953;52.372;9.918;2023-11-19T05:12:01;5.63;;;4.07;;
11791;SDS011;5953;52.372;9.918;2023-11-19T05:14:29;4.77;;;4.30;;
11791;SDS011;5953;52.372;9.918;2023-11-19T05:16:57;6.73;;;4.63;;
11791;SDS011;5953;52.372;9.918;2023-11-19T05:19:26;5.60;;;4.93;;
11791;SDS011;5953;52.372;9.918;2023-11-19T05:21:54;7.33;;;5.27;;
11791;SDS011;5953;52.372;9.918;2023-11-19T05:24:23;10.07;;;5.50;;
11791;SDS011;5953;52.372;9.918;2023-11-19T05:26:51;5.30;;;4.43;;
11791;SDS011;5953;52.372;9.918;2023-11-19T05:29:19;6.17;;;4.97;;
11791;SDS011;5953;52.372;9.918;2023-11-19T05:31:47;5.57;;;5.07;;
11791;SDS011;5953;52.372;9.918;2023-11-19T05:34:14;5.23;;;4.33;;
11791;SDS011;5953;52.372;9.918;2023-11-19T05:36:45;6.30;;;4.70;;
11791;SDS011;5953;52.372;9.918;2023-11-19T05:39:13;8.10;;;4.80;;
11791;SDS011;5953;52.372;9.918;2023-11-19T05:41:41;6.97;;;4.90;;
11791;SDS011;5953;52.372;9.918;2023-11-19T05:44:08;9.93;;;5.23;;
11791;SDS011;5953;52.372;9.918;2023-11-19T05:46:36;6.67;;;5.20;;
11791;SDS011;5953;52.372;9.918;2023-11-19T05:49:09;6.30;;;5.13;;
11791;SDS011;5953;52.372;9.918;2023-11-19T05:51:36;7.30;;;5.63;;
11791;SDS011;5953;52.372;9.918;2023-11-19T05:54:07;8.33;;;6.27;;
11791;SDS011;5953;52.372;9.918;2023-11-19T05:56:36;9.37;;;6.57;;
11791;SDS011;5953;52.372;9.918;2023-11-19T05:59:04;8.67;;;5.80;;
11791;SDS011;5953;52.372;9.918;2023-11-19T06:01:35;9.20;;;6.13;;
11791;SDS011;5953;52.372;9.918;2023-11-19T06:04:04;11.53;;;7.83;;
11791;SDS011;5953;52.372;9.918;2023-11-19T06:06:33;12.17;;;6.60;;
11791;SDS011;5953;52.372;9.918;2023-11-19T06:09:01;10.60;;;6.13;;
11791;SDS011;5953;52.372;9.918;2023-11-19T06:11:36;8.47;;;6.50;;
11791;SDS011;5953;52.372;9.918;2023-11-19T06:14:04;9.03;;;6.43;;
11791;SDS011;5953;52.372;9.918;2023-11-19T06:16:33;7.90;;;6.03;;
11791;SDS011;5953;52.372;9.918;2023-11-19T06:19:03;8.17;;;6.33;;
11791;SDS011;5953;52.372;9.918;2023-11-19T06:21:31;7.07;;;6.27;;
11791;SDS011;5953;52.372;9.918;2023-11-19T06:23:59;8.07;;;6.23;;
11791;SDS011;5953;52.372;9.918;2023-11-19T06:26:27;10.87;;;6.20;;
11791;SDS011;5953;52.372;9.918;2023-11-19T06:28:56;8.57;;;6.30;;
11791;SDS011;5953;52.372;9.918;2023-11-19T06:31:24;6.70;;;6.00;;
11791;SDS011;5953;52.372;9.918;2023-11-19T06:33:51;8.93;;;6.43;;
11791;SDS011;5953;52.372;9.918;2023-11-19T06:36:19;7.23;;;5.37;;
11791;SDS011;5953;52.372;9.918;2023-11-19T06:38:48;7.27;;;5.53;;
11791;SDS011;5953;52.372;9.918;2023-11-19T06:41:15;12.70;;;6.13;;
11791;SDS011;5953;52.372;9.918;2023-11-19T06:43:43;11.47;;;5.60;;
11791;SDS011;5953;52.372;9.918;2023-11-19T06:46:16;11.07;;;6.27;;
11791;SDS011;5953;52.372;9.918;2023-11-19T06:48:44;8.87;;;6.27;;
11791;SDS011;5953;52.372;9.918;2023-11-19T06:51:12;14.07;;;6.23;;
11791;SDS011;5953;52.372;9.918;2023-11-19T06:53:40;13.53;;;6.00;;
11791;SDS011;5953;52.372;9.918;2023-11-19T06:56:17;11.23;;;5.20;;
11791;SDS011;5953;52.372;9.918;2023-11-19T06:58:46;12.53;;;5.10;;
11791;SDS011;5953;52.372;9.918;2023-11-19T07:01:15;16.73;;;6.13;;
11791;SDS011;5953;52.372;9.918;2023-11-19T07:03:44;14.60;;;5.37;;
11791;SDS011;5953;52.372;9.918;2023-11-19T07:06:13;15.27;;;5.70;;
11791;SDS011;5953;52.372;9.918;2023-11-19T07:08:41;13.97;;;5.43;;
11791;SDS011;5953;52.372;9.918;2023-11-19T07:11:08;11.77;;;4.80;;
11791;SDS011;5953;52.372;9.918;2023-11-19T07:13:37;19.93;;;5.87;;
11791;SDS011;5953;52.372;9.918;2023-11-19T07:16:06;19.60;;;4.93;;
11791;SDS011;5953;52.372;9.918;2023-11-19T07:18:39;15.03;;;5.63;;
11791;SDS011;5953;52.372;9.918;2023-11-19T07:21:08;17.30;;;4.77;;
11791;SDS011;5953;52.372;9.918;2023-11-19T07:23:37;14.17;;;4.60;;
11791;SDS011;5953;52.372;9.918;2023-11-19T07:26:05;12.80;;;4.50;;
11791;SDS011;5953;52.372;9.918;2023-11-19T07:28:35;16.63;;;5.03;;
11791;SDS011;5953;52.372;9.918;2023-11-19T07:31:04;18.17;;;4.47;;
11791;SDS011;5953;52.372;9.918;2023-11-19T07:33:34;13.57;;;4.53;;
11791;SDS011;5953;52.372;9.918;2023-11-19T07:36:03;16.90;;;4.53;;
11791;SDS011;5953;52.372;9.918;2023-11-19T07:38:31;11.77;;;3.73;;
11791;SDS011;5953;52.372;9.918;2023-11-19T07:40:59;15.60;;;4.97;;
11791;SDS011;5953;52.372;9.918;2023-11-19T07:43:27;16.67;;;3.73;;
11791;SDS011;5953;52.372;9.918;2023-11-19T07:45:55;20.13;;;4.57;;
11791;SDS011;5953;52.372;9.918;2023-11-19T07:48:25;14.83;;;4.07;;
11791;SDS011;5953;52.372;9.918;2023-11-19T07:50:53;14.73;;;4.20;;
11791;SDS011;5953;52.372;9.918;2023-11-19T07:53:22;21.60;;;4.37;;
11791;SDS011;5953;52.372;9.918;2023-11-19T07:55:50;16.13;;;4.50;;
11791;SDS011;5953;52.372;9.918;2023-11-19T07:58:18;20.73;;;4.27;;
11791;SDS011;5953;52.372;9.918;2023-11-19T08:00:46;20.63;;;4.50;;
11791;SDS011;5953;52.372;9.918;2023-11-19T08:03:13;18.50;;;4.77;;
11791;SDS011;5953;52.372;9.918;2023-11-19T08:05:41;20.37;;;4.90;;
11791;SDS011;5953;52.372;9.918;2023-11-19T08:08:10;19.90;;;3.77;;
11791;SDS011;5953;52.372;9.918;2023-11-19T08:10:39;17.03;;;4.27;;
11791;SDS011;5953;52.372;9.918;2023-11-19T08:13:07;17.67;;;4.20;;
11791;SDS011;5953;52.372;9.918;2023-11-19T08:15:35;16.07;;;4.10;;
11791;SDS011;5953;52.372;9.918;2023-11-19T08:18:03;13.57;;;4.07;;
11791;SDS011;5953;52.372;9.918;2023-11-19T08:20:31;18.20;;;4.50;;
11791;SDS011;5953;52.372;9.918;2023-11-19T08:22:59;17.07;;;4.10;;
11791;SDS011;5953;52.372;9.918;2023-11-19T08:25:29;16.53;;;4.87;;
11791;SDS011;5953;52.372;9.918;2023-11-19T08:27:58;16.17;;;4.03;;
11791;SDS011;5953;52.372;9.918;2023-11-19T08:30:26;19.13;;;4.70;;
11791;SDS011;5953;52.372;9.918;2023-11-19T08:32:54;24.37;;;4.93;;
11791;SDS011;5953;52.372;9.918;2023-11-19T08:35:22;13.80;;;4.20;;
11791;SDS011;5953;52.372;9.918;2023-11-19T08:37:51;23.40;;;5.27;;
11791;SDS011;5953;52.372;9.918;2023-11-19T08:40:19;18.93;;;5.40;;
11791;SDS011;5953;52.372;9.918;2023-11-19T08:42:47;17.80;;;5.33;;
11791;SDS011;5953;52.372;9.918;2023-11-19T08:45:16;16.97;;;4.30;;
11791;SDS011;5953;52.372;9.918;2023-11-19T08:47:44;23.30;;;5.37;;
11791;SDS011;5953;52.372;9.918;2023-11-19T08:50:12;20.37;;;5.10;;
11791;SDS011;5953;52.372;9.918;2023-11-19T08:52:40;17.30;;;4.53;;
11791;SDS011;5953;52.372;9.918;2023-11-19T08:55:08;17.70;;;4.97;;
11791;SDS011;5953;52.372;9.918;2023-11-19T08:57:36;18.40;;;4.97;;
11791;SDS011;5953;52.372;9.918;2023-11-19T09:00:05;19.80;;;4.97;;
11791;SDS011;5953;52.372;9.918;2023-11-19T09:02:36;15.37;;;4.80;;
11791;SDS011;5953;52.372;9.918;2023-11-19T09:05:05;23.10;;;4.97;;
11791;SDS011;5953;52.372;9.918;2023-11-19T09:07:34;21.37;;;4.77;;
11791;SDS011;5953;52.372;9.918;2023-11-19T09:10:01;22.07;;;4.47;;
11791;SDS011;5953;52.372;9.918;2023-11-19T09:12:31;24.63;;;6.13;;
11791;SDS011;5953;52.372;9.918;2023-11-19T09:14:59;16.33;;;4.60;;
11791;SDS011;5953;52.372;9.918;2023-11-19T09:17:27;17.70;;;4.63;;
11791;SDS011;5953;52.372;9.918;2023-11-19T09:19:56;20.60;;;4.47;;
11791;SDS011;5953;52.372;9.918;2023-11-19T09:22:24;21.93;;;5.33;;
11791;SDS011;5953;52.372;9.918;2023-11-19T09:24:52;21.23;;;4.53;;
11791;SDS011;5953;52.372;9.918;2023-11-19T09:27:20;23.90;;;4.47;;
11791;SDS011;5953;52.372;9.918;2023-11-19T09:29:48;18.97;;;4.13;;
11791;SDS011;5953;52.372;9.918;2023-11-19T09:32:21;21.30;;;4.57;;
11791;SDS011;5953;52.372;9.918;2023-11-19T09:34:49;19.13;;;4.90;;
11791;SDS011;5953;52.372;9.918;2023-11-19T09:37:18;20.23;;;4.90;;
11791;SDS011;5953;52.372;9.918;2023-11-19T09:39:47;21.23;;;5.03;;
11791;SDS011;5953;52.372;9.918;2023-11-19T09:42:15;22.20;;;5.50;;
11791;SDS011;5953;52.372;9.918;2023-11-19T09:44:44;19.33;;;4.77;;
11791;SDS011;5953;52.372;9.918;2023-11-19T09:47:13;15.10;;;4.97;;
11791;SDS011;5953;52.372;9.918;2023-11-19T09:49:42;26.37;;;5.60;;
11791;SDS011;5953;52.372;9.918;2023-11-19T09:52:11;18.00;;;4.40;;
11791;SDS011;5953;52.372;9.918;2023-11-19T09:54:40;18.30;;;6.00;;
11791;SDS011;5953;52.372;9.918;2023-11-19T09:57:08;19.60;;;5.43;;
11791;SDS011;5953;52.372;9.918;2023-11-19T09:59:37;19.17;;;4.40;;
11791;SDS011;5953;52.372;9.918;2023-11-19T10:02:07;21.43;;;5.07;;
11791;SDS011;5953;52.372;9.918;2023-11-19T10:04:37;19.70;;;4.93;;
11791;SDS011;5953;52.372;9.918;2023-11-19T10:07:07;19.57;;;4.87;;
11791;SDS011;5953;52.372;9.918;2023-11-19T10:09:35;26.63;;;5.70;;
11791;SDS011;5953;52.372;9.918;2023-11-19T10:12:04;22.33;;;5.40;;
11791;SDS011;5953;52.372;9.918;2023-11-19T10:14:32;19.03;;;4.87;;
11791;SDS011;5953;52.372;9.918;2023-11-19T10:17:05;22.03;;;5.30;;
11791;SDS011;5953;52.372;9.918;2023-11-19T10:19:34;17.63;;;4.00;;
11791;SDS011;5953;52.372;9.918;2023-11-19T10:22:03;16.07;;;4.50;;
11791;SDS011;5953;52.372;9.918;2023-11-19T10:24:32;21.17;;;5.57;;
11791;SDS011;5953;52.372;9.918;2023-11-19T10:27:07;23.77;;;5.43;;
11791;SDS011;5953;52.372;9.918;2023-11-19T10:29:36;21.23;;;5.13;;
11791;SDS011;5953;52.372;9.918;2023-11-19T10:32:04;22.73;;;4.80;;
11791;SDS011;5953;52.372;9.918;2023-11-19T10:34:52;17.10;;;4.50;;
11791;SDS011;5953;52.372;9.918;2023-11-19T10:37:29;23.37;;;4.67;;
11791;SDS011;5953;52.372;9.918;2023-11-19T10:39:58;20.43;;;4.13;;
11791;SDS011;5953;52.372;9.918;2023-11-19T10:42:27;25.40;;;5.80;;
11791;SDS011;5953;52.372;9.918;2023-11-19T10:44:55;18.10;;;3.93;;
11791;SDS011;5953;52.372;9.918;2023-11-19T10:47:23;23.30;;;5.40;;
11791;SDS011;5953;52.372;9.918;2023-11-19T10:49:53;24.93;;;4.03;;
11791;SDS011;5953;52.372;9.918;2023-11-19T10:52:22;20.40;;;3.63;;
11791;SDS011;5953;52.372;9.918;2023-11-19T10:54:51;16.60;;;3.97;;
11791;SDS011;5953;52.372;9.918;2023-11-19T10:57:19;18.13;;;4.37;;
11791;SDS011;5953;52.372;9.918;2023-11-19T10:59:50;17.10;;;3.93;;
11791;SDS011;5953;52.372;9.918;2023-11-19T11:02:23;16.53;;;3.40;;
11791;SDS011;5953;52.372;9.918;2023-11-19T11:04:53;18.83;;;6.03;;
11791;SDS011;5953;52.372;9.918;2023-11-19T11:07:21;19.57;;;5.83;;
11791;SDS011;5953;52.372;9.918;2023-11-19T11:10:02;23.13;;;6.47;;
11791;SDS011;5953;52.372;9.918;2023-11-19T11:12:32;15.27;;;4.60;;
11791;SDS011;5953;52.372;9.918;2023-11-19T11:15:05;14.07;;;3.63;;
11791;SDS011;5953;52.372;9.918;2023-11-19T11:17:34;26.77;;;4.93;;
11791;SDS011;5953;52.372;9.918;2023-11-19T11:20:04;22.07;;;5.23;;
11791;SDS011;5953;52.372;9.918;2023-11-19T11:22:37;18.10;;;4.50;;
11791;SDS011;5953;52.372;9.918;2023-11-19T11:25:18;16.73;;;5.17;;
11791;SDS011;5953;52.372;9.918;2023-11-19T11:28:05;20.67;;;4.83;;
11791;SDS011;5953;52.372;9.918;2023-11-19T11:30:49;16.83;;;4.83;;
11791;SDS011;5953;52.372;9.918;2023-11-19T11:33:32;18.07;;;4.27;;
11791;SDS011;5953;52.372;9.918;2023-11-19T11:36:11;18.70;;;4.10;;
11791;SDS011;5953;52.372;9.918;2023-11-19T11:38:46;21.87;;;4.63;;
11791;SDS011;5953;52.372;9.918;2023-11-19T11:41:16;13.73;;;3.80;;
11791;SDS011;5953;52.372;9.918;2023-11-19T11:43:47;21.90;;;5.37;;
11791;SDS011;5953;52.372;9.918;2023-11-19T11:49:24;22.63;;;4.60;;
11791;SDS011;5953;52.372;9.918;2023-11-19T11:52:00;19.87;;;5.00;;
11791;SDS011;5953;52.372;9.918;2023-11-19T11:54:29;20.20;;;4.43;;
11791;SDS011;5953;52.372;9.918;2023-11-19T11:57:08;19.43;;;4.60;;
11791;SDS011;5953;52.372;9.918;2023-11-19T11:59:43;22.90;;;5.23;;
11791;SDS011;5953;52.372;9.918;2023-11-19T12:02:15;19.13;;;3.77;;
11791;SDS011;5953;52.372;9.918;2023-11-19T12:04:47;18.07;;;4.50;;
11791;SDS011;5953;52.372;9.918;2023-11-19T12:07:17;17.33;;;4.50;;
11791;SDS011;5953;52.372;9.918;2023-11-19T12:09:47;18.47;;;4.73;;
11791;SDS011;5953;52.372;9.918;2023-11-19T12:12:19;16.43;;;4.27;;
11791;SDS011;5953;52.372;9.918;2023-11-19T12:15:02;23.20;;;5.70;;
11791;SDS011;5953;52.372;9.918;2023-11-19T12:17:49;21.60;;;5.00;;
11791;SDS011;5953;52.372;9.918;2023-11-19T12:20:18;21.77;;;3.83;;
11791;SDS011;5953;52.372;9.918;2023-11-19T12:22:50;24.83;;;5.93;;
11791;SDS011;5953;52.372;9.918;2023-11-19T12:25:18;15.73;;;5.13;;
11791;SDS011;5953;52.372;9.918;2023-11-19T12:27:48;20.13;;;4.87;;
11791;SDS011;5953;52.372;9.918;2023-11-19T12:30:18;19.33;;;5.33;;
11791;SDS011;5953;52.372;9.918;2023-11-19T12:32:51;18.67;;;4.67;;
11791;SDS011;5953;52.372;9.918;2023-11-19T12:35:20;17.80;;;5.13;;
11791;SDS011;5953;52.372;9.918;2023-11-19T12:37:49;21.40;;;6.60;;
11791;SDS011;5953;52.372;9.918;2023-11-19T12:40:18;21.80;;;5.37;;
11791;SDS011;5953;52.372;9.918;2023-11-19T12:42:48;20.77;;;5.23;;
11791;SDS011;5953;52.372;9.918;2023-11-19T12:45:16;17.00;;;4.47;;
11791;SDS011;5953;52.372;9.918;2023-11-19T12:47:46;24.27;;;5.33;;
11791;SDS011;5953;52.372;9.918;2023-11-19T12:50:17;16.80;;;4.60;;
11791;SDS011;5953;52.372;9.918;2023-11-19T12:52:55;16.77;;;4.53;;
11791;SDS011;5953;52.372;9.918;2023-11-19T12:55:27;20.23;;;5.30;;
11791;SDS011;5953;52.372;9.918;2023-11-19T12:57:56;19.33;;;5.03;;
11791;SDS011;5953;52.372;9.918;2023-11-19T13:00:26;23.43;;;5.60;;
11791;SDS011;5953;52.372;9.918;2023-11-19T13:02:55;17.63;;;5.33;;
11791;SDS011;5953;52.372;9.918;2023-11-19T13:05:26;16.93;;;3.83;;
11791;SDS011;5953;52.372;9.918;2023-11-19T13:07:58;20.57;;;4.80;;
11791;SDS011;5953;52.372;9.918;2023-11-19T13:10:27;17.40;;;4.27;;
11791;SDS011;5953;52.372;9.918;2023-11-19T13:13:04;17.93;;;5.03;;
11791;SDS011;5953;52.372;9.918;2023-11-19T13:15:34;11.70;;;3.70;;
11791;SDS011;5953;52.372;9.918;2023-11-19T13:18:03;16.60;;;4.10;;
11791;SDS011;5953;52.372;9.918;2023-11-19T13:20:32;21.13;;;4.87;;
11791;SDS011;5953;52.372;9.918;2023-11-19T13:23:00;17.43;;;4.40;;
11791;SDS011;5953;52.372;9.918;2023-11-19T13:25:30;15.60;;;4.37;;
11791;SDS011;5953;52.372;9.918;2023-11-19T13:27:59;17.70;;;4.30;;
11791;SDS011;5953;52.372;9.918;2023-11-19T13:30:27;20.77;;;4.37;;
11791;SDS011;5953;52.372;9.918;2023-11-19T13:32:55;13.00;;;3.67;;
11791;SDS011;5953;52.372;9.918;2023-11-19T13:35:23;18.73;;;4.80;;
11791;SDS011;5953;52.372;9.918;2023-11-19T13:37:53;24.17;;;5.90;;
11791;SDS011;5953;52.372;9.918;2023-11-19T13:40:21;17.23;;;4.53;;
11791;SDS011;5953;52.372;9.918;2023-11-19T13:42:50;20.57;;;4.30;;
11791;SDS011;5953;52.372;9.918;2023-11-19T13:45:18;19.73;;;4.67;;
11791;SDS011;5953;52.372;9.918;2023-11-19T13:47:47;16.93;;;3.57;;
11791;SDS011;5953;52.372;9.918;2023-11-19T13:50:15;18.77;;;4.63;;
11791;SDS011;5953;52.372;9.918;2023-11-19T13:52:44;16.80;;;4.83;;
11791;SDS011;5953;52.372;9.918;2023-11-19T13:55:15;22.27;;;5.07;;
11791;SDS011;5953;52.372;9.918;2023-11-19T13:57:42;25.77;;;5.13;;
11791;SDS011;5953;52.372;9.918;2023-11-19T14:00:11;15.57;;;4.80;;
11791;SDS011;5953;52.372;9.918;2023-11-19T14:02:42;16.70;;;4.87;;
11791;SDS011;5953;52.372;9.918;2023-11-19T14:05:10;20.07;;;4.83;;
11791;SDS011;5953;52.372;9.918;2023-11-19T14:07:39;21.80;;;4.30;;
11791;SDS011;5953;52.372;9.918;2023-11-19T14:10:07;11.70;;;4.00;;
11791;SDS011;5953;52.372;9.918;2023-11-19T14:12:38;18.37;;;4.57;;
11791;SDS011;5953;52.372;9.918;2023-11-19T14:15:07;21.43;;;5.23;;
11791;SDS011;5953;52.372;9.918;2023-11-19T14:17:38;21.13;;;4.57;;
11791;SDS011;5953;52.372;9.918;2023-11-19T14:20:07;17.23;;;5.27;;
11791;SDS011;5953;52.372;9.918;2023-11-19T14:22:39;18.37;;;4.40;;
11791;SDS011;5953;52.372;9.918;2023-11-19T14:25:08;16.67;;;5.13;;
11791;SDS011;5953;52.372;9.918;2023-11-19T14:27:38;14.97;;;4.03;;
11791;SDS011;5953;52.372;9.918;2023-11-19T14:30:07;20.93;;;5.03;;
11791;SDS011;5953;52.372;9.918;2023-11-19T14:32:37;16.67;;;4.53;;
11791;SDS011;5953;52.372;9.918;2023-11-19T14:35:06;16.13;;;4.97;;
11791;SDS011;5953;52.372;9.918;2023-11-19T14:37:34;19.60;;;4.10;;
11791;SDS011;5953;52.372;9.918;2023-11-19T14:40:03;18.57;;;4.13;;
11791;SDS011;5953;52.372;9.918;2023-11-19T14:42:32;18.73;;;5.20;;
11791;SDS011;5953;52.372;9.918;2023-11-19T14:45:01;17.03;;;4.67;;
11791;SDS011;5953;52.372;9.918;2023-11-19T14:47:29;17.53;;;5.13;;
11791;SDS011;5953;52.372;9.918;2023-11-19T14:49:57;19.93;;;4.63;;
11791;SDS011;5953;52.372;9.918;2023-11-19T14:52:25;18.87;;;5.30;;
11791;SDS011;5953;52.372;9.918;2023-11-19T14:54:52;18.87;;;4.03;;
11791;SDS011;5953;52.372;9.918;2023-11-19T14:57:23;17.30;;;4.50;;
11791;SDS011;5953;52.372;9.918;2023-11-19T14:59:50;23.10;;;6.40;;
11791;SDS011;5953;52.372;9.918;2023-11-19T15:02:19;15.73;;;3.43;;
11791;SDS011;5953;52.372;9.918;2023-11-19T15:04:48;19.63;;;4.13;;
11791;SDS011;5953;52.372;9.918;2023-11-19T15:07:16;14.73;;;3.47;;
11791;SDS011;5953;52.372;9.918;2023-11-19T15:09:44;15.80;;;4.97;;
11791;SDS011;5953;52.372;9.918;2023-11-19T15:12:12;16.90;;;4.83;;